Time;durP1;ratioP1;P1;durP2;ratioP2;P2;SDS_P1;SDS_P2;PMS_P1;PMS_P2;Temp;Humidity;BMP_temperature;BMP_pressure;BME280_temperature;BME280_humidity;BME280_pressure;Samples;Min_cycle;Max_cycle;Signal;HPM_P1;HPM_P2
2023/12/21 00:00:43;;;;;;;191.70;56.17;;;;;;;;;;4962868;28;20193;-42
2023/12/21 00:03:09;;;;;;;188.90;54.27;;;;;;;;;;4955354;28;20649;-43
2023/12/21 00:05:35;;;;;;;184.30;54.77;;;;;;;;;;4955351;28;20781;-43
2023/12/21 00:08:01;;;;;;;187.70;54.20;;;;;;;;;;4955425;28;20472;-43
2023/12/21 00:10:27;;;;;;;193.33;58.00;;;;;;;;;;4955223;28;20413;-42
2023/12/21 00:12:53;;;;;;;186.37;54.13;;;;;;;;;;4955472;28;20491;-43
2023/12/21 00:15:19;;;;;;;178.47;53.53;;;;;;;;;;4955364;28;20424;-42
2023/12/21 00:17:45;;;;;;;175.43;54.13;;;;;;;;;;4956362;28;20428;-42
2023/12/21 00:20:11;;;;;;;179.13;53.08;;;;;;;;;;4955007;28;20553;-43
2023/12/21 00:22:37;;;;;;;185.05;54.00;;;;;;;;;;4954898;28;20201;-42
2023/12/21 00:25:03;;;;;;;173.77;52.57;;;;;;;;;;4954998;28;20732;-43
2023/12/21 00:27:29;;;;;;;131.60;48.40;;;;;;;;;;4955154;28;20475;-42
2023/12/21 00:29:55;;;;;;;177.60;53.20;;;;;;;;;;4954908;28;20169;-43
2023/12/21 00:32:21;;;;;;;180.00;54.80;;;;;;;;;;4954784;28;20429;-43
2023/12/21 00:34:49;;;;;;;176.50;53.63;;;;;;;;;;4957452;28;20413;-42
2023/12/21 00:37:15;;;;;;;177.95;53.50;;;;;;;;;;4959014;28;20426;-43
2023/12/21 00:39:41;;;;;;;175.80;53.72;;;;;;;;;;4959870;28;21215;-43
2023/12/21 00:42:07;;;;;;;184.93;56.30;;;;;;;;;;4961803;28;20291;-42
2023/12/21 00:44:33;;;;;;;167.30;52.15;;;;;;;;;;4954581;28;20979;-43
2023/12/21 00:46:59;;;;;;;180.13;54.22;;;;;;;;;;4954600;28;20178;-42
2023/12/21 00:49:25;;;;;;;179.77;54.90;;;;;;;;;;4954577;28;20705;-43
2023/12/21 00:51:51;;;;;;;173.82;53.35;;;;;;;;;;4954322;28;20429;-43
2023/12/21 00:54:17;;;;;;;197.17;57.20;;;;;;;;;;4955093;28;20537;-42
2023/12/21 00:56:43;;;;;;;186.53;53.83;;;;;;;;;;4955122;28;20498;-42
2023/12/21 00:59:09;;;;;;;185.77;54.40;;;;;;;;;;4954876;28;20420;-42
2023/12/21 01:01:35;;;;;;;192.50;55.17;;;;;;;;;;4957236;28;20468;-42
2023/12/21 01:04:01;;;;;;;190.90;55.20;;;;;;;;;;4973687;28;20461;-42
2023/12/21 01:06:27;;;;;;;190.47;53.90;;;;;;;;;;4955409;28;20634;-42
2023/12/21 01:08:53;;;;;;;195.37;54.87;;;;;;;;;;4966578;28;20405;-42
2023/12/21 01:11:19;;;;;;;192.87;55.03;;;;;;;;;;4961162;28;20425;-42
2023/12/21 01:13:45;;;;;;;195.27;54.53;;;;;;;;;;4960835;28;20416;-42
2023/12/21 01:16:13;;;;;;;192.47;55.20;;;;;;;;;;4971264;28;20421;-42
2023/12/21 01:18:39;;;;;;;190.25;55.88;;;;;;;;;;4954281;28;20449;-42
2023/12/21 01:21:05;;;;;;;183.93;54.83;;;;;;;;;;4972027;28;20229;-42
2023/12/21 01:23:31;;;;;;;183.02;55.03;;;;;;;;;;4959333;28;20468;-42
2023/12/21 01:25:57;;;;;;;181.45;54.03;;;;;;;;;;4964331;28;20176;-42
2023/12/21 01:28:23;;;;;;;179.37;53.30;;;;;;;;;;4967295;28;20192;-42
2023/12/21 01:30:49;;;;;;;173.10;53.87;;;;;;;;;;4955811;28;20476;-42
2023/12/21 01:33:15;;;;;;;177.10;53.63;;;;;;;;;;4973668;28;20416;-42
2023/12/21 01:35:41;;;;;;;178.93;53.70;;;;;;;;;;4955684;28;20413;-42
2023/12/21 01:38:07;;;;;;;187.80;55.23;;;;;;;;;;4967737;28;20216;-42
2023/12/21 01:40:32;;;;;;;190.77;58.47;;;;;;;;;;4963307;28;20406;-42
2023/12/21 01:42:58;;;;;;;185.30;53.87;;;;;;;;;;4959049;28;20408;-42
2023/12/21 01:45:24;;;;;;;190.23;56.53;;;;;;;;;;4971378;28;20465;-42
2023/12/21 01:47:51;;;;;;;203.47;67.97;;;;;;;;;;4952795;28;20240;-43
2023/12/21 01:50:18;;;;;;;170.05;49.47;;;;;;;;;;4953079;29;20413;-43
2023/12/21 01:52:44;;;;;;;198.05;55.92;;;;;;;;;;4953716;28;20220;-42
2023/12/21 01:55:12;;;;;;;197.05;57.45;;;;;;;;;;4953804;28;20182;-42
2023/12/21 01:57:38;;;;;;;197.90;56.65;;;;;;;;;;4958708;28;20673;-42
2023/12/21 02:00:05;;;;;;;200.85;57.20;;;;;;;;;;4953745;28;20186;-43
2023/12/21 02:02:31;;;;;;;201.45;57.42;;;;;;;;;;4952876;28;20257;-42
2023/12/21 02:04:57;;;;;;;201.17;57.60;;;;;;;;;;4954733;28;20209;-42
2023/12/21 02:07:23;;;;;;;198.23;56.42;;;;;;;;;;4953562;28;20421;-42
2023/12/21 02:09:49;;;;;;;200.17;56.30;;;;;;;;;;4953551;28;20666;-42
2023/12/21 02:12:15;;;;;;;201.70;57.03;;;;;;;;;;4953357;28;20441;-42
2023/12/21 02:14:41;;;;;;;200.50;56.57;;;;;;;;;;4953396;28;20202;-42
2023/12/21 02:17:10;;;;;;;201.87;56.57;;;;;;;;;;4954068;28;20824;-42
2023/12/21 02:19:37;;;;;;;198.88;56.08;;;;;;;;;;4955303;28;20484;-42
2023/12/21 02:22:04;;;;;;;205.30;60.85;;;;;;;;;;4953370;28;20216;-43
2023/12/21 02:24:30;;;;;;;200.10;56.40;;;;;;;;;;4953595;28;20205;-42
2023/12/21 02:26:56;;;;;;;200.15;56.92;;;;;;;;;;4953494;28;20202;-42
2023/12/21 02:29:22;;;;;;;201.93;56.38;;;;;;;;;;4953308;28;20208;-43
2023/12/21 02:31:48;;;;;;;199.97;55.87;;;;;;;;;;4953268;28;20230;-42
2023/12/21 02:34:14;;;;;;;196.65;55.67;;;;;;;;;;4955009;28;20420;-42
2023/12/21 02:36:40;;;;;;;200.20;55.83;;;;;;;;;;4956843;28;20174;-42
2023/12/21 02:39:06;;;;;;;197.98;56.25;;;;;;;;;;4953430;28;20508;-42
2023/12/21 02:41:32;;;;;;;195.27;55.70;;;;;;;;;;4953023;28;20699;-42
2023/12/21 02:43:58;;;;;;;197.17;55.57;;;;;;;;;;4952911;28;20237;-42
2023/12/21 02:46:25;;;;;;;196.83;56.00;;;;;;;;;;4953343;28;20460;-42
2023/12/21 02:48:51;;;;;;;195.02;55.38;;;;;;;;;;4953228;28;20886;-43
2023/12/21 02:51:17;;;;;;;195.05;56.78;;;;;;;;;;4952969;28;20197;-42
2023/12/21 02:53:43;;;;;;;194.65;54.35;;;;;;;;;;4952289;28;20239;-42
2023/12/21 02:56:09;;;;;;;195.20;55.47;;;;;;;;;;4955316;28;20277;-42
2023/12/21 02:58:36;;;;;;;195.18;56.22;;;;;;;;;;4956753;28;20421;-42
2023/12/21 03:01:02;;;;;;;194.02;55.90;;;;;;;;;;4958399;28;20212;-42
2023/12/21 03:03:28;;;;;;;190.82;55.67;;;;;;;;;;4956570;28;20185;-42
2023/12/21 03:05:54;;;;;;;193.57;55.07;;;;;;;;;;4959766;28;20205;-43
2023/12/21 03:08:20;;;;;;;188.93;54.10;;;;;;;;;;4956682;28;20413;-42
2023/12/21 03:10:46;;;;;;;191.93;55.93;;;;;;;;;;4956266;28;20420;-43
2023/12/21 03:13:12;;;;;;;188.20;55.20;;;;;;;;;;4956423;28;20424;-46
2023/12/21 03:15:38;;;;;;;187.80;55.03;;;;;;;;;;4958200;28;20479;-42
2023/12/21 03:18:04;;;;;;;193.43;57.07;;;;;;;;;;4959569;28;20460;-43
2023/12/21 03:20:30;;;;;;;197.40;58.72;;;;;;;;;;4956134;28;20409;-42
2023/12/21 03:22:56;;;;;;;191.77;55.50;;;;;;;;;;4956415;28;20210;-43
2023/12/21 03:25:22;;;;;;;195.17;55.00;;;;;;;;;;4956232;28;20492;-42
2023/12/21 03:27:48;;;;;;;203.35;57.60;;;;;;;;;;4964092;28;20419;-42
2023/12/21 03:30:14;;;;;;;198.37;56.47;;;;;;;;;;4957834;28;20335;-42
2023/12/21 03:32:42;;;;;;;197.40;55.83;;;;;;;;;;4959372;28;20444;-43
2023/12/21 03:35:08;;;;;;;198.45;57.30;;;;;;;;;;4960922;28;20594;-42
2023/12/21 03:37:34;;;;;;;197.85;56.08;;;;;;;;;;4960244;28;20177;-43
2023/12/21 03:40:00;;;;;;;200.87;56.60;;;;;;;;;;4959121;28;20648;-43
2023/12/21 03:42:26;;;;;;;203.57;57.27;;;;;;;;;;4962749;28;20846;-43
2023/12/21 03:44:52;;;;;;;199.90;56.03;;;;;;;;;;4957341;28;20465;-42
2023/12/21 03:47:18;;;;;;;201.27;56.10;;;;;;;;;;4959049;28;20380;-42
2023/12/21 03:49:44;;;;;;;199.20;55.17;;;;;;;;;;4960473;28;20459;-42
2023/12/21 03:52:10;;;;;;;194.60;57.27;;;;;;;;;;4955356;28;20441;-43
2023/12/21 03:54:36;;;;;;;190.35;54.35;;;;;;;;;;4955874;28;20410;-43
2023/12/21 03:57:02;;;;;;;189.47;54.77;;;;;;;;;;4955871;28;20185;-42
2023/12/21 03:59:28;;;;;;;197.50;55.40;;;;;;;;;;4974315;28;20451;-42
2023/12/21 04:01:54;;;;;;;193.53;54.13;;;;;;;;;;4959956;28;20241;-43
2023/12/21 04:04:20;;;;;;;193.57;55.83;;;;;;;;;;4966466;28;20460;-42
2023/12/21 04:06:46;;;;;;;197.37;54.47;;;;;;;;;;4973919;28;20173;-43
2023/12/21 04:09:12;;;;;;;201.00;55.45;;;;;;;;;;4968209;28;20794;-42
2023/12/21 04:11:40;;;;;;;200.30;54.63;;;;;;;;;;4936351;29;20219;-42
2023/12/21 04:14:06;;;;;;;198.20;54.90;;;;;;;;;;4954787;29;20170;-43
2023/12/21 04:16:31;;;;;;;201.90;56.53;;;;;;;;;;4940747;28;20193;-43
2023/12/21 04:18:58;;;;;;;200.70;57.47;;;;;;;;;;4946721;29;20456;-43
2023/12/21 04:21:24;;;;;;;198.50;57.10;;;;;;;;;;4948214;28;20445;-43
2023/12/21 04:23:50;;;;;;;199.90;56.97;;;;;;;;;;4938709;29;20210;-42
2023/12/21 04:26:20;;;;;;;197.37;57.67;;;;;;;;;;4955351;28;20413;-43
2023/12/21 04:28:47;;;;;;;193.65;56.72;;;;;;;;;;4936541;28;20418;-43
2023/12/21 04:31:17;;;;;;;198.73;58.40;;;;;;;;;;4950686;28;20194;-43
2023/12/21 04:33:45;;;;;;;198.98;56.55;;;;;;;;;;4943622;28;20197;-43
2023/12/21 04:36:11;;;;;;;193.38;57.00;;;;;;;;;;4943467;29;20666;-42
2023/12/21 04:38:38;;;;;;;173.65;52.78;;;;;;;;;;4951164;28;20314;-43
2023/12/21 04:41:04;;;;;;;190.85;57.97;;;;;;;;;;4935844;29;20578;-43
2023/12/21 04:43:29;;;;;;;192.87;56.33;;;;;;;;;;4954657;29;20184;-42
2023/12/21 04:45:55;;;;;;;194.53;56.27;;;;;;;;;;4939714;28;20423;-43
2023/12/21 04:48:21;;;;;;;198.20;55.30;;;;;;;;;;4946839;29;20492;-43
2023/12/21 04:50:47;;;;;;;199.57;55.67;;;;;;;;;;4947185;28;20473;-43
2023/12/21 04:53:13;;;;;;;201.37;56.53;;;;;;;;;;4940166;29;20425;-43
2023/12/21 04:55:39;;;;;;;197.50;55.73;;;;;;;;;;4954715;28;20504;-42
2023/12/21 04:58:05;;;;;;;194.93;57.67;;;;;;;;;;4953989;28;20449;-43
2023/12/21 05:00:31;;;;;;;198.63;58.47;;;;;;;;;;4953852;28;20480;-42
2023/12/21 05:02:57;;;;;;;200.37;55.40;;;;;;;;;;4952570;28;20418;-43
2023/12/21 05:05:23;;;;;;;199.40;56.00;;;;;;;;;;4947769;28;20466;-42
2023/12/21 05:07:49;;;;;;;201.45;56.67;;;;;;;;;;4938150;29;20627;-43
2023/12/21 05:10:15;;;;;;;204.40;57.80;;;;;;;;;;4952467;28;20209;-43
2023/12/21 05:12:41;;;;;;;202.75;55.92;;;;;;;;;;4954289;28;20186;-43
2023/12/21 05:15:07;;;;;;;205.67;56.83;;;;;;;;;;4954059;28;20531;-43
2023/12/21 05:17:34;;;;;;;199.57;55.97;;;;;;;;;;4953537;28;20782;-43
2023/12/21 05:20:00;;;;;;;184.57;52.38;;;;;;;;;;4954122;28;20204;-43
2023/12/21 05:22:26;;;;;;;199.57;56.20;;;;;;;;;;4953919;28;20543;-43
2023/12/21 05:24:52;;;;;;;201.53;57.23;;;;;;;;;;4954318;28;20208;-43
2023/12/21 05:27:18;;;;;;;199.67;56.90;;;;;;;;;;4954092;28;20928;-43
2023/12/21 05:29:44;;;;;;;201.02;57.70;;;;;;;;;;4954069;28;20413;-43
2023/12/21 05:32:10;;;;;;;203.10;58.10;;;;;;;;;;4953625;28;20198;-44
2023/12/21 05:34:36;;;;;;;202.07;55.53;;;;;;;;;;4953868;28;20193;-43
2023/12/21 05:37:02;;;;;;;202.38;57.85;;;;;;;;;;4953855;28;20424;-43
2023/12/21 05:39:28;;;;;;;205.30;56.58;;;;;;;;;;4953959;28;20693;-43
2023/12/21 05:41:54;;;;;;;202.55;56.78;;;;;;;;;;4953542;28;20298;-43
2023/12/21 05:44:20;;;;;;;201.40;57.10;;;;;;;;;;4953658;28;20202;-44
2023/12/21 05:46:46;;;;;;;199.60;56.40;;;;;;;;;;4954092;28;20397;-44
2023/12/21 05:49:12;;;;;;;200.63;56.90;;;;;;;;;;4952744;29;20174;-44
2023/12/21 05:51:38;;;;;;;199.67;56.90;;;;;;;;;;4953538;28;20202;-43
2023/12/21 05:54:04;;;;;;;199.15;56.85;;;;;;;;;;4953563;28;20821;-44
2023/12/21 05:56:30;;;;;;;199.30;55.80;;;;;;;;;;4953869;28;20188;-44
2023/12/21 05:58:56;;;;;;;201.10;57.33;;;;;;;;;;4953633;28;20618;-43
2023/12/21 06:01:23;;;;;;;200.73;57.20;;;;;;;;;;4953349;28;20204;-43
2023/12/21 06:03:49;;;;;;;201.75;56.80;;;;;;;;;;4953204;28;20457;-43
2023/12/21 06:06:16;;;;;;;202.70;56.85;;;;;;;;;;4953589;28;20654;-43
2023/12/21 06:08:42;;;;;;;206.10;56.10;;;;;;;;;;4953634;28;20228;-44
2023/12/21 06:11:08;;;;;;;205.67;55.50;;;;;;;;;;4953229;28;20614;-43
2023/12/21 06:13:34;;;;;;;206.37;57.80;;;;;;;;;;4953453;28;20440;-43
2023/12/21 06:16:00;;;;;;;203.52;55.55;;;;;;;;;;4953488;28;20413;-43
2023/12/21 06:18:26;;;;;;;204.30;57.17;;;;;;;;;;4953332;28;20170;-43
2023/12/21 06:20:52;;;;;;;203.70;57.10;;;;;;;;;;4953357;28;20205;-43
2023/12/21 06:23:18;;;;;;;202.87;55.90;;;;;;;;;;4953294;28;20420;-43
2023/12/21 06:25:44;;;;;;;205.23;57.00;;;;;;;;;;4953568;28;20460;-43
2023/12/21 06:28:10;;;;;;;204.98;55.75;;;;;;;;;;4953378;28;20260;-43
2023/12/21 06:30:36;;;;;;;207.70;59.57;;;;;;;;;;4956217;28;20603;-43
2023/12/21 06:33:03;;;;;;;204.25;56.03;;;;;;;;;;4957532;28;20409;-43
2023/12/21 06:35:29;;;;;;;205.95;57.28;;;;;;;;;;4957219;28;20209;-43
2023/12/21 06:37:55;;;;;;;202.93;56.22;;;;;;;;;;4957253;28;20237;-43
2023/12/21 06:40:21;;;;;;;208.90;59.07;;;;;;;;;;4956979;28;20190;-43
2023/12/21 06:42:47;;;;;;;207.30;56.23;;;;;;;;;;4957222;28;20430;-43
2023/12/21 06:45:13;;;;;;;204.90;56.73;;;;;;;;;;4956850;28;20461;-43
2023/12/21 06:47:39;;;;;;;204.57;57.23;;;;;;;;;;4956893;28;20444;-43
2023/12/21 06:50:05;;;;;;;203.13;57.03;;;;;;;;;;4956931;28;20750;-43
2023/12/21 06:52:31;;;;;;;201.48;55.92;;;;;;;;;;4956551;28;20860;-42
2023/12/21 06:54:57;;;;;;;198.87;55.97;;;;;;;;;;4956175;28;20247;-43
2023/12/21 06:57:23;;;;;;;201.38;57.15;;;;;;;;;;4956697;28;20456;-43
2023/12/21 06:59:49;;;;;;;202.13;57.17;;;;;;;;;;4955479;28;20181;-42
2023/12/21 07:02:16;;;;;;;200.25;57.42;;;;;;;;;;4956037;28;20795;-43
2023/12/21 07:04:41;;;;;;;197.55;56.95;;;;;;;;;;4956709;28;20228;-42
2023/12/21 07:07:14;;;;;;;205.37;59.80;;;;;;;;;;4956562;28;20650;-43
2023/12/21 07:09:41;;;;;;;202.07;56.92;;;;;;;;;;4958393;28;20412;-43
2023/12/21 07:12:07;;;;;;;200.13;58.35;;;;;;;;;;4965988;28;20195;-43
2023/12/21 07:14:33;;;;;;;198.27;56.07;;;;;;;;;;4971106;28;20593;-43
2023/12/21 07:16:59;;;;;;;200.00;55.27;;;;;;;;;;4957544;28;20483;-43
2023/12/21 07:19:24;;;;;;;196.30;57.67;;;;;;;;;;4976101;28;20463;-43
2023/12/21 07:21:50;;;;;;;198.73;56.37;;;;;;;;;;4959626;28;20437;-43
2023/12/21 07:24:16;;;;;;;204.00;57.10;;;;;;;;;;4956871;28;20461;-43
2023/12/21 07:26:42;;;;;;;199.23;57.15;;;;;;;;;;4948322;28;20790;-43
2023/12/21 07:29:08;;;;;;;205.15;56.95;;;;;;;;;;4941612;29;20686;-43
2023/12/21 07:31:34;;;;;;;201.77;55.40;;;;;;;;;;4955871;28;20201;-43
2023/12/21 07:34:00;;;;;;;202.67;57.17;;;;;;;;;;4937483;29;20174;-43
2023/12/21 07:36:26;;;;;;;203.77;57.17;;;;;;;;;;4952774;29;20484;-43
2023/12/21 07:38:52;;;;;;;203.93;57.27;;;;;;;;;;4944776;28;20455;-43
2023/12/21 07:41:18;;;;;;;194.07;54.13;;;;;;;;;;4943845;28;20437;-43
2023/12/21 07:43:44;;;;;;;199.33;56.33;;;;;;;;;;4952588;28;20423;-43
2023/12/21 07:46:10;;;;;;;207.23;56.53;;;;;;;;;;4937380;29;20415;-43
2023/12/21 07:48:36;;;;;;;201.88;56.47;;;;;;;;;;4956204;29;20166;-43
2023/12/21 07:51:02;;;;;;;203.15;58.55;;;;;;;;;;4941034;28;20632;-43
2023/12/21 07:53:28;;;;;;;201.47;56.17;;;;;;;;;;4947943;29;20249;-43
2023/12/21 07:55:54;;;;;;;199.47;55.77;;;;;;;;;;4949029;28;20710;-43
2023/12/21 07:58:20;;;;;;;196.60;55.93;;;;;;;;;;4948953;29;20454;-43
2023/12/21 08:00:46;;;;;;;200.27;56.40;;;;;;;;;;4936876;29;20406;-43
2023/12/21 08:03:12;;;;;;;199.15;56.75;;;;;;;;;;4955180;29;20418;-43
2023/12/21 08:05:38;;;;;;;201.07;56.22;;;;;;;;;;4941103;28;20214;-43
2023/12/21 08:08:04;;;;;;;200.17;56.63;;;;;;;;;;4947654;29;20195;-43
2023/12/21 08:10:30;;;;;;;201.93;58.13;;;;;;;;;;4949049;28;20442;-43
2023/12/21 08:12:58;;;;;;;202.20;55.70;;;;;;;;;;4939156;29;20597;-43
2023/12/21 08:15:26;;;;;;;201.90;55.33;;;;;;;;;;4955641;28;20397;-43
2023/12/21 08:17:55;;;;;;;203.40;57.45;;;;;;;;;;4937066;28;20611;-43
2023/12/21 08:20:22;;;;;;;199.38;54.88;;;;;;;;;;4951159;29;20170;-43
2023/12/21 08:22:48;;;;;;;200.73;55.13;;;;;;;;;;4944729;28;20246;-43
2023/12/21 08:25:14;;;;;;;200.37;56.87;;;;;;;;;;4943379;29;20193;-43
2023/12/21 08:27:41;;;;;;;198.50;56.28;;;;;;;;;;4952344;28;20418;-43
2023/12/21 08:30:07;;;;;;;196.13;55.60;;;;;;;;;;4936361;29;20706;-43
2023/12/21 08:32:33;;;;;;;195.10;56.25;;;;;;;;;;4954566;28;20709;-43
2023/12/21 08:35:00;;;;;;;193.97;56.70;;;;;;;;;;4940947;28;20193;-43
2023/12/21 08:37:26;;;;;;;194.13;55.65;;;;;;;;;;4946877;29;20428;-43
2023/12/21 08:39:52;;;;;;;192.90;55.55;;;;;;;;;;4948561;28;20217;-43
2023/12/21 08:42:20;;;;;;;190.67;55.97;;;;;;;;;;4944116;29;20242;-43
2023/12/21 08:44:48;;;;;;;189.90;54.88;;;;;;;;;;4936102;29;20462;-42
2023/12/21 08:47:14;;;;;;;192.57;56.47;;;;;;;;;;4936531;29;20171;-43
2023/12/21 08:49:41;;;;;;;192.90;55.40;;;;;;;;;;4950846;29;20248;-43
2023/12/21 08:52:07;;;;;;;187.23;57.47;;;;;;;;;;4943757;28;20455;-43
2023/12/21 08:54:33;;;;;;;188.77;55.07;;;;;;;;;;4942097;29;20190;-43
2023/12/21 08:56:59;;;;;;;187.13;55.50;;;;;;;;;;4952081;28;20426;-43
2023/12/21 08:59:28;;;;;;;195.97;55.80;;;;;;;;;;4935944;29;20505;-43
2023/12/21 09:01:54;;;;;;;193.85;56.58;;;;;;;;;;4954180;28;20779;-43
2023/12/21 09:04:20;;;;;;;189.68;55.72;;;;;;;;;;4953728;28;20623;-43
2023/12/21 09:06:46;;;;;;;190.63;55.55;;;;;;;;;;4954310;28;20182;-43
2023/12/21 09:09:13;;;;;;;188.60;55.77;;;;;;;;;;4954081;28;20265;-43
2023/12/21 09:11:39;;;;;;;187.38;53.42;;;;;;;;;;4951867;28;20529;-43
2023/12/21 09:14:07;;;;;;;186.60;54.90;;;;;;;;;;4952546;29;20654;-43
2023/12/21 09:16:33;;;;;;;184.27;54.63;;;;;;;;;;4936134;28;20179;-43
2023/12/21 09:18:59;;;;;;;183.57;55.38;;;;;;;;;;4949692;29;20265;-43
2023/12/21 09:21:25;;;;;;;169.90;52.27;;;;;;;;;;4943599;28;20734;-43
2023/12/21 09:23:51;;;;;;;156.50;51.35;;;;;;;;;;4940370;29;20476;-43
2023/12/21 09:26:17;;;;;;;172.80;53.10;;;;;;;;;;4953309;28;20665;-43
2023/12/21 09:28:43;;;;;;;176.90;53.92;;;;;;;;;;4954435;28;20894;-43
2023/12/21 09:31:09;;;;;;;173.55;53.30;;;;;;;;;;4935855;28;20293;-43
2023/12/21 09:33:36;;;;;;;161.93;52.17;;;;;;;;;;4949231;29;20256;-43
2023/12/21 09:36:02;;;;;;;142.38;49.55;;;;;;;;;;4943981;28;20930;-43
2023/12/21 09:38:28;;;;;;;151.15;51.53;;;;;;;;;;4941044;29;20665;-43
2023/12/21 09:40:56;;;;;;;86.83;44.37;;;;;;;;;;4951384;28;20238;-43
2023/12/21 09:43:22;;;;;;;38.78;31.92;;;;;;;;;;4934954;29;20403;-43
2023/12/21 09:45:52;;;;;;;41.10;32.80;;;;;;;;;;4950791;29;20682;-43
2023/12/21 09:48:18;;;;;;;59.80;43.22;;;;;;;;;;4953797;29;20253;-43
2023/12/21 09:50:45;;;;;;;53.58;42.42;;;;;;;;;;4953511;28;20229;-43
2023/12/21 09:53:13;;;;;;;52.15;35.58;;;;;;;;;;4953524;28;20177;-43
2023/12/21 09:55:40;;;;;;;38.22;30.13;;;;;;;;;;4959362;28;20173;-43
2023/12/21 09:58:11;;;;;;;34.85;31.65;;;;;;;;;;4962188;28;20201;-43
2023/12/21 10:00:37;;;;;;;32.10;29.23;;;;;;;;;;4952131;28;20170;-43
2023/12/21 10:03:04;;;;;;;14.35;13.38;;;;;;;;;;4953635;28;20178;-42
2023/12/21 10:05:30;;;;;;;34.70;30.25;;;;;;;;;;4953029;28;20764;-43
2023/12/21 10:07:57;;;;;;;35.45;30.35;;;;;;;;;;4953753;28;20233;-43
2023/12/21 10:10:23;;;;;;;15.38;14.32;;;;;;;;;;4957399;28;20204;-43
2023/12/21 10:12:49;;;;;;;11.55;10.65;;;;;;;;;;4953499;28;20205;-43
2023/12/21 10:15:17;;;;;;;27.93;25.93;;;;;;;;;;4953513;28;20198;-43
2023/12/21 10:17:43;;;;;;;35.92;31.83;;;;;;;;;;4953333;28;20429;-43
2023/12/21 10:20:13;;;;;;;32.53;29.50;;;;;;;;;;4952365;29;20178;-42
2023/12/21 10:22:40;;;;;;;53.53;36.55;;;;;;;;;;4953287;28;20186;-43
2023/12/21 10:25:07;;;;;;;35.08;32.20;;;;;;;;;;4953336;28;20302;-42
2023/12/21 10:27:33;;;;;;;31.38;29.17;;;;;;;;;;4953510;28;20590;-43
2023/12/21 10:29:59;;;;;;;18.13;17.00;;;;;;;;;;4953299;28;20185;-43
2023/12/21 10:32:25;;;;;;;15.10;14.13;;;;;;;;;;4954028;28;20461;-43
2023/12/21 10:34:54;;;;;;;48.88;36.50;;;;;;;;;;4953525;28;20414;-43
2023/12/21 10:37:22;;;;;;;37.65;33.75;;;;;;;;;;4954813;28;20589;-43
2023/12/21 10:39:48;;;;;;;36.33;32.60;;;;;;;;;;4972361;28;20661;-43
2023/12/21 10:42:14;;;;;;;48.50;34.00;;;;;;;;;;4954191;28;20249;-43
2023/12/21 10:44:44;;;;;;;65.88;35.50;;;;;;;;;;4967411;28;20461;-43
2023/12/21 10:47:10;;;;;;;126.85;49.35;;;;;;;;;;4961697;28;20186;-43
2023/12/21 10:49:37;;;;;;;124.13;51.57;;;;;;;;;;4959972;28;20177;-43
2023/12/21 10:52:04;;;;;;;120.82;48.30;;;;;;;;;;4969443;28;20429;-43
2023/12/21 10:54:33;;;;;;;103.40;40.38;;;;;;;;;;4953363;28;20533;-43
2023/12/21 10:56:59;;;;;;;90.85;44.00;;;;;;;;;;4965021;28;20178;-43
2023/12/21 10:59:26;;;;;;;85.90;38.25;;;;;;;;;;4953009;28;20182;-43
2023/12/21 11:01:54;;;;;;;92.43;40.40;;;;;;;;;;4952734;28;20697;-42
2023/12/21 11:04:21;;;;;;;85.80;38.58;;;;;;;;;;4952344;28;20213;-43
2023/12/21 11:06:47;;;;;;;147.77;53.08;;;;;;;;;;4952991;28;20174;-43
2023/12/21 11:09:18;;;;;;;93.10;40.95;;;;;;;;;;4953037;28;20186;-43
2023/12/21 11:11:45;;;;;;;66.38;36.95;;;;;;;;;;4952806;28;20218;-43
2023/12/21 11:14:11;;;;;;;57.80;34.22;;;;;;;;;;4953354;28;20265;-42
2023/12/21 11:16:41;;;;;;;47.38;31.77;;;;;;;;;;4954549;28;20229;-43
2023/12/21 11:19:08;;;;;;;35.17;31.70;;;;;;;;;;4956611;28;20233;-43
2023/12/21 11:21:34;;;;;;;21.67;19.92;;;;;;;;;;4967239;28;20192;-43
2023/12/21 11:24:02;;;;;;;20.63;19.27;;;;;;;;;;4967733;28;20202;-43
2023/12/21 11:26:28;;;;;;;17.27;15.93;;;;;;;;;;4960261;28;20196;-43
2023/12/21 11:29:07;;;;;;;31.52;28.85;;;;;;;;;;4975478;28;20177;-43
2023/12/21 11:31:39;;;;;;;54.53;34.05;;;;;;;;;;4936982;29;20757;-43
2023/12/21 11:34:23;;;;;;;49.90;34.88;;;;;;;;;;4965608;28;20204;-43
2023/12/21 11:36:50;;;;;;;58.10;33.58;;;;;;;;;;4956621;28;20610;-43
2023/12/21 11:39:17;;;;;;;56.75;32.60;;;;;;;;;;4968621;28;20188;-43
2023/12/21 11:41:59;;;;;;;28.67;26.30;;;;;;;;;;4966540;28;20201;-43
2023/12/21 11:44:35;;;;;;;11.07;10.27;;;;;;;;;;4962953;28;20221;-43
2023/12/21 11:47:01;;;;;;;31.83;29.15;;;;;;;;;;4971363;28;20286;-43
2023/12/21 11:49:29;;;;;;;15.52;14.52;;;;;;;;;;4956259;28;20162;-43
2023/12/21 11:51:55;;;;;;;24.13;22.42;;;;;;;;;;4975090;28;20667;-43
2023/12/21 11:54:22;;;;;;;73.43;30.07;;;;;;;;;;4959353;28;20186;-43
2023/12/21 11:56:52;;;;;;;108.90;38.05;;;;;;;;;;4964726;28;20414;-43
2023/12/21 11:59:18;;;;;;;148.85;49.60;;;;;;;;;;4964368;28;20177;-43
2023/12/21 12:01:47;;;;;;;96.77;39.27;;;;;;;;;;4970244;28;20209;-43
2023/12/21 12:04:14;;;;;;;109.05;39.95;;;;;;;;;;4955878;28;21145;-44
2023/12/21 12:06:40;;;;;;;170.50;53.70;;;;;;;;;;4955297;28;20178;-44
2023/12/21 12:09:07;;;;;;;167.27;52.53;;;;;;;;;;4972341;28;20170;-43
2023/12/21 12:11:33;;;;;;;62.00;36.03;;;;;;;;;;4974012;28;20198;-43
2023/12/21 12:13:59;;;;;;;103.57;48.45;;;;;;;;;;4957338;28;20186;-43
2023/12/21 12:16:24;;;;;;;64.55;36.60;;;;;;;;;;4940987;29;20646;-43
2023/12/21 12:18:51;;;;;;;92.68;42.63;;;;;;;;;;4954566;28;20178;-43
2023/12/21 12:21:17;;;;;;;94.10;37.95;;;;;;;;;;4936090;29;20210;-43
2023/12/21 12:23:49;;;;;;;111.85;42.83;;;;;;;;;;4951622;29;20257;-43
2023/12/21 12:26:16;;;;;;;187.77;58.17;;;;;;;;;;4954901;28;20650;-43
2023/12/21 12:28:42;;;;;;;132.57;49.55;;;;;;;;;;4948415;28;20178;-44
2023/12/21 12:31:08;;;;;;;159.48;54.55;;;;;;;;;;4949090;28;20215;-43
2023/12/21 12:33:37;;;;;;;164.98;56.42;;;;;;;;;;4936600;29;20178;-43
2023/12/21 12:36:07;;;;;;;168.25;58.00;;;;;;;;;;4924424;29;20182;-43
2023/12/21 12:38:33;;;;;;;164.82;56.00;;;;;;;;;;4944318;28;20728;-44
2023/12/21 12:40:59;;;;;;;170.40;56.90;;;;;;;;;;4952379;28;20281;-44
2023/12/21 12:43:29;;;;;;;118.28;44.08;;;;;;;;;;4945333;28;20671;-44
2023/12/21 12:45:55;;;;;;;146.05;50.42;;;;;;;;;;4941217;29;20257;-44
2023/12/21 12:48:21;;;;;;;89.75;37.30;;;;;;;;;;4953276;28;20677;-44
2023/12/21 12:50:47;;;;;;;106.82;42.15;;;;;;;;;;4954578;28;20189;-43
2023/12/21 12:53:16;;;;;;;113.90;47.90;;;;;;;;;;4937111;28;20175;-44
2023/12/21 12:55:45;;;;;;;92.60;40.10;;;;;;;;;;4949170;29;20425;-43
2023/12/21 12:58:11;;;;;;;142.40;50.30;;;;;;;;;;4944162;28;20262;-43
2023/12/21 13:00:38;;;;;;;122.70;43.77;;;;;;;;;;4941192;28;20270;-43
2023/12/21 13:03:04;;;;;;;124.50;42.65;;;;;;;;;;4952446;28;20406;-43
2023/12/21 13:05:30;;;;;;;119.32;42.00;;;;;;;;;;4935195;29;20219;-43
2023/12/21 13:07:56;;;;;;;126.18;44.03;;;;;;;;;;4952987;29;20544;-43
2023/12/21 13:10:22;;;;;;;123.80;44.73;;;;;;;;;;4940620;28;20175;-44
2023/12/21 13:12:48;;;;;;;155.30;52.38;;;;;;;;;;4944811;29;20433;-43
2023/12/21 13:15:15;;;;;;;112.30;42.00;;;;;;;;;;4947521;28;20189;-44
2023/12/21 13:17:41;;;;;;;143.80;51.05;;;;;;;;;;4937000;29;20234;-43
2023/12/21 13:20:09;;;;;;;78.00;36.23;;;;;;;;;;4954260;28;20515;-43
2023/12/21 13:22:35;;;;;;;82.05;36.20;;;;;;;;;;4936516;28;20985;-44
2023/12/21 13:25:01;;;;;;;66.80;36.70;;;;;;;;;;4947237;29;20217;-43
2023/12/21 13:27:27;;;;;;;139.07;41.60;;;;;;;;;;4944232;28;20179;-43
2023/12/21 13:29:53;;;;;;;194.00;57.63;;;;;;;;;;4943675;29;20415;-43
2023/12/21 13:32:20;;;;;;;188.95;54.35;;;;;;;;;;4951871;28;20201;-43
2023/12/21 13:34:46;;;;;;;186.90;53.00;;;;;;;;;;4935099;29;20259;-44
2023/12/21 13:37:12;;;;;;;183.75;54.03;;;;;;;;;;4952317;28;20621;-43
2023/12/21 13:39:38;;;;;;;173.97;52.37;;;;;;;;;;4940063;28;20274;-43
2023/12/21 13:42:06;;;;;;;128.70;41.85;;;;;;;;;;4943548;29;20516;-43
2023/12/21 13:44:32;;;;;;;172.70;53.10;;;;;;;;;;4947767;28;20264;-43
2023/12/21 13:46:58;;;;;;;58.77;24.13;;;;;;;;;;4935154;29;20678;-43
2023/12/21 13:49:24;;;;;;;161.23;53.55;;;;;;;;;;4934526;29;20486;-43
2023/12/21 13:51:50;;;;;;;30.27;28.03;;;;;;;;;;4951452;28;20276;-43
2023/12/21 13:54:21;;;;;;;12.00;11.00;;;;;;;;;;4940670;28;20933;-43
2023/12/21 13:56:47;;;;;;;31.83;29.73;;;;;;;;;;4944328;29;20402;-43
2023/12/21 13:59:13;;;;;;;28.30;26.30;;;;;;;;;;4948018;28;20193;-43
2023/12/21 14:01:39;;;;;;;22.98;21.13;;;;;;;;;;4934852;29;20437;-43